Andover, Minnesota
Current Conditions -  °F | °C
As of 3:34 AM on Friday 28 Nov 2014 (Local Time) from KANE Reporting Station
Light Snow Light Snow  
Wind Chill: -4°   Ceiling: 6500
Heat Index: 10°   Visibility: 10mi
Dew Point:   Wind: 12mph
Humidity: 92%   Direction: 120°ESE
Pressure: 30.09"   Gusts: NA
Location:  45.24°N, 93.31°W
Report Text: KANE 280934Z AUTO 12010KT 10SM -SN OVC065 M12/M13 A3009 RMK AO2
Loading
Personal Weather Stations






























Interactive Weather Map New forecast layout! Learn more

10-Day Weather Forecast

Advertisements
Track Severe Weather on mobile